Time;durP1;ratioP1;P1;durP2;ratioP2;P2;SDS_P1;SDS_P2;PMS_P1;PMS_P2;Temp;Humidity;BMP_temperature;BMP_pressure;BME280_temperature;BME280_humidity;BME280_pressure;Samples;Min_cycle;Max_cycle;Signal;HPM_P1;HPM_P2
2022/09/12 00:01:30;;;;;;;;;;;;;;;;;;20842013;28;20004;-61
2022/09/12 00:11:32;;;;;;;;;;;;;;;;;;20840835;28;20015;-61
2022/09/12 00:21:34;;;;;;;;;;;;;;;;;;20840771;28;19970;-61
2022/09/12 00:31:36;;;;;;;;;;;;;;;;;;20839600;28;19925;-60
2022/09/12 00:41:38;;;;;;;;;;;;;;;;;;20839743;28;20278;-60
2022/09/12 00:51:40;;;;;;;;;;;;;;;;;;20839351;28;19925;-60
2022/09/12 01:01:42;;;;;;;;;;;;;;;;;;20838027;28;20292;-63
2022/09/12 01:11:45;;;;;;;;;;;;;;;;;;20835874;28;20024;-60
2022/09/12 01:21:48;;;;;;;;;;;;;;;;;;20836270;28;19932;-60
2022/09/12 01:31:53;;;;;;;;;;;;;;;;;;20834595;28;19925;-62
2022/09/12 01:41:57;;;;;;;;;;;;;;;;;;20835470;28;19925;-59
2022/09/12 01:52:05;;;;;;;;;;;;;;;;;;20833958;28;20047;-61
2022/09/12 02:02:12;;;;;;;;;;;;;;;;;;20832883;28;19925;-60
2022/09/12 02:12:17;;;;;;;;;;;;;;;;;;20831879;28;19936;-61
2022/09/12 02:22:24;;;;;;;;;;;;;;;;;;20832664;28;19974;-61
2022/09/12 02:32:27;;;;;;;;;;;;;;;;;;20831240;28;19952;-60
2022/09/12 02:42:30;;;;;;;;;;;;;;;;;;20831429;28;20412;-60
2022/09/12 02:52:33;;;;;;;;;;;;;;;;;;20831619;28;19987;-60
2022/09/12 03:02:35;;;;;;;;;;;;;;;;;;20830035;28;19925;-59
2022/09/12 03:12:38;;;;;;;;;;;;;;;;;;20830011;28;19980;-60
2022/09/12 03:22:40;;;;;;;;;;;;;;;;;;20829979;28;19925;-61
2022/09/12 03:32:43;;;;;;;;;;;;;;;;;;20836294;28;19968;-60
2022/09/12 03:42:45;;;;;;;;;;;;;;;;;;20843935;28;19925;-61
2022/09/12 03:52:47;;;;;;;;;;;;;;;;;;20843240;28;20024;-60
2022/09/12 04:02:49;;;;;;;;;;;;;;;;;;20841847;28;19925;-61
2022/09/12 04:12:51;;;;;;;;;;;;;;;;;;20841111;28;19931;-61
2022/09/12 04:22:54;;;;;;;;;;;;;;;;;;20840347;28;19976;-59
2022/09/12 04:32:56;;;;;;;;;;;;;;;;;;20839193;28;20039;-61
2022/09/12 04:42:58;;;;;;;;;;;;;;;;;;20838405;28;19933;-60
2022/09/12 04:53:03;;;;;;;;;;;;;;;;;;20838876;28;19929;-62
2022/09/12 05:03:05;;;;;;;;;;;;;;;;;;20837542;28;19925;-61
2022/09/12 05:13:08;;;;;;;;;;;;;;;;;;20818760;28;19929;-61
2022/09/12 05:23:10;;;;;;;;;;;;;;;;;;20835949;28;19925;-61
2022/09/12 05:33:12;;;;;;;;;;;;;;;;;;20834425;28;19925;-62
2022/09/12 05:43:14;;;;;;;;;;;;;;;;;;20835058;28;19944;-61
2022/09/12 05:53:18;;;;;;;;;;;;;;;;;;20833330;28;19960;-61
2022/09/12 06:03:20;;;;;;;;;;;;;;;;;;20833908;28;20016;-62
2022/09/12 06:13:23;;;;;;;;;;;;;;;;;;20831956;28;20016;-61
2022/09/12 06:23:25;;;;;;;;;;;;;;;;;;20832841;28;19933;-62
2022/09/12 06:33:27;;;;;;;;;;;;;;;;;;20831145;28;19925;-60
2022/09/12 06:43:29;;;;;;;;;;;;;;;;;;20831251;28;20320;-62
2022/09/12 06:53:35;;;;;;;;;;;;;;;;;;20831455;28;20083;-61
2022/09/12 07:03:37;;;;;;;;;;;;;;;;;;20831929;28;19925;-62
2022/09/12 07:13:39;;;;;;;;;;;;;;;;;;20845950;28;20332;-61
2022/09/12 07:23:42;;;;;;;;;;;;;;;;;;20845966;28;19925;-59
2022/09/12 07:33:44;;;;;;;;;;;;;;;;;;20843511;28;19925;-60
2022/09/12 07:43:46;;;;;;;;;;;;;;;;;;20843451;28;19947;-61
2022/09/12 07:53:49;;;;;;;;;;;;;;;;;;20842668;28;19979;-59
2022/09/12 08:03:51;;;;;;;;;;;;;;;;;;20842117;28;20300;-64
2022/09/12 08:13:54;;;;;;;;;;;;;;;;;;20826138;28;20430;-62
2022/09/12 08:23:56;;;;;;;;;;;;;;;;;;20794353;28;19926;-58
2022/09/12 08:33:59;;;;;;;;;;;;;;;;;;20791531;28;19925;-65
2022/09/12 08:44:02;;;;;;;;;;;;;;;;;;20791086;28;19929;-65
2022/09/12 08:54:04;;;;;;;;;;;;;;;;;;20799884;28;19925;-62
2022/09/12 09:04:06;;;;;;;;;;;;;;;;;;20803669;28;20297;-59
2022/09/12 09:24:29;;;;;;;;;;;;;;;;;;20750556;28;20275;-63
2022/09/12 09:34:31;;;;;;;;;;;;;;;;;;20749154;28;19926;-64
2022/09/12 09:44:33;;;;;;;;;;;;;;;;;;20750429;28;19926;-72
2022/09/12 09:54:34;;;;;;;;;;;;;;;;;;20748827;28;20146;-62
2022/09/12 10:04:36;;;;;;;;;;;;;;;;;;20748495;28;19925;-61
2022/09/12 10:14:38;;;;;;;;;;;;;;;;;;20748608;28;19926;-62
2022/09/12 10:24:41;;;;;;;;;;;;;;;;;;20745659;28;20464;-63
2022/09/12 10:34:43;;;;;;;;;;;;;;;;;;20747118;28;19972;-72
2022/09/12 10:44:45;;;;;;;;;;;;;;;;;;20759729;28;19929;-66
2022/09/12 10:54:46;;;;;;;;;;;;;;;;;;20764362;28;20039;-61
2022/09/12 11:04:48;;;;;;;;;;;;;;;;;;20762381;28;19980;-59
2022/09/12 11:14:50;;;;;;;;;;;;;;;;;;20761366;28;19968;-72
2022/09/12 11:24:52;;;;;;;;;;;;;;;;;;20762640;28;19948;-63
2022/09/12 11:34:54;;;;;;;;;;;;;;;;;;20761109;28;19933;-62
2022/09/12 11:44:56;;;;;;;;;;;;;;;;;;20760954;28;19926;-62
2022/09/12 11:54:58;;;;;;;;;;;;;;;;;;20758692;28;20006;-62
2022/09/12 12:05:00;;;;;;;;;;;;;;;;;;20759352;28;19925;-63
2022/09/12 12:15:01;;;;;;;;;;;;;;;;;;20759636;28;20397;-61
2022/09/12 12:25:03;;;;;;;;;;;;;;;;;;20759919;28;19972;-61
2022/09/12 12:35:05;;;;;;;;;;;;;;;;;;20757738;28;19933;-63
2022/09/12 12:45:07;;;;;;;;;;;;;;;;;;20757052;28;20374;-62
2022/09/12 12:55:09;;;;;;;;;;;;;;;;;;20755626;28;19937;-64
2022/09/12 13:05:10;;;;;;;;;;;;;;;;;;20754296;28;19980;-64
2022/09/12 13:15:12;;;;;;;;;;;;;;;;;;20755777;28;19933;-62
2022/09/12 13:25:15;;;;;;;;;;;;;;;;;;20756665;28;19964;-62
2022/09/12 13:35:18;;;;;;;;;;;;;;;;;;20754808;28;19951;-63
2022/09/12 13:45:20;;;;;;;;;;;;;;;;;;20752428;28;19926;-63
2022/09/12 13:55:22;;;;;;;;;;;;;;;;;;20752979;28;19948;-63
2022/09/12 14:05:24;;;;;;;;;;;;;;;;;;20751146;28;19932;-63
2022/09/12 14:15:26;;;;;;;;;;;;;;;;;;20751240;28;20401;-63
2022/09/12 14:25:30;;;;;;;;;;;;;;;;;;20750270;28;20025;-62
2022/09/12 14:35:32;;;;;;;;;;;;;;;;;;20748797;28;20086;-62
2022/09/12 14:45:33;;;;;;;;;;;;;;;;;;20749170;28;19930;-63
2022/09/12 14:55:35;;;;;;;;;;;;;;;;;;20748005;28;19992;-62
2022/09/12 15:05:37;;;;;;;;;;;;;;;;;;20748984;28;20373;-64
2022/09/12 15:15:39;;;;;;;;;;;;;;;;;;20748016;28;19964;-63
2022/09/12 15:25:41;;;;;;;;;;;;;;;;;;20749999;28;19925;-62
2022/09/12 15:35:42;;;;;;;;;;;;;;;;;;20760746;28;19925;-61
2022/09/12 15:45:45;;;;;;;;;;;;;;;;;;20760791;28;19940;-62
2022/09/12 15:55:47;;;;;;;;;;;;;;;;;;20761418;28;20278;-63
2022/09/12 16:05:48;;;;;;;;;;;;;;;;;;20761282;28;19933;-63
2022/09/12 16:15:51;;;;;;;;;;;;;;;;;;20761891;28;20297;-64
2022/09/12 16:25:53;;;;;;;;;;;;;;;;;;20758981;28;20001;-63
2022/09/12 16:35:55;;;;;;;;;;;;;;;;;;20758507;28;19925;-63
2022/09/12 16:45:56;;;;;;;;;;;;;;;;;;20756932;28;19932;-63
2022/09/12 16:55:58;;;;;;;;;;;;;;;;;;20757327;28;20380;-64
2022/09/12 17:06:00;;;;;;;;;;;;;;;;;;20755268;28;19988;-62
2022/09/12 17:16:02;;;;;;;;;;;;;;;;;;20753614;28;20016;-64
2022/09/12 17:26:04;;;;;;;;;;;;;;;;;;20753241;28;19929;-63
2022/09/12 17:36:07;;;;;;;;;;;;;;;;;;20752805;28;19932;-62
2022/09/12 17:46:09;;;;;;;;;;;;;;;;;;20735827;28;20060;-62
2022/09/12 17:56:10;;;;;;;;;;;;;;;;;;20751250;28;19925;-62
2022/09/12 18:06:13;;;;;;;;;;;;;;;;;;20751653;28;20267;-64
2022/09/12 18:16:15;;;;;;;;;;;;;;;;;;20750936;28;19936;-64
2022/09/12 18:26:17;;;;;;;;;;;;;;;;;;20750455;28;19925;-64
2022/09/12 18:36:19;;;;;;;;;;;;;;;;;;20750374;28;19926;-64
2022/09/12 18:46:21;;;;;;;;;;;;;;;;;;20749911;28;19932;-63
2022/09/12 18:56:23;;;;;;;;;;;;;;;;;;20733937;28;19941;-64
2022/09/12 19:06:24;;;;;;;;;;;;;;;;;;20742946;28;20299;-64
2022/09/12 19:16:26;;;;;;;;;;;;;;;;;;20763703;28;19960;-64
2022/09/12 19:26:28;;;;;;;;;;;;;;;;;;20763229;28;19925;-63
2022/09/12 19:36:30;;;;;;;;;;;;;;;;;;20762539;28;19925;-63
2022/09/12 19:46:32;;;;;;;;;;;;;;;;;;20761647;28;19925;-64
2022/09/12 19:56:34;;;;;;;;;;;;;;;;;;20760960;28;20393;-63
2022/09/12 20:06:36;;;;;;;;;;;;;;;;;;20760198;28;19988;-63
2022/09/12 20:16:37;;;;;;;;;;;;;;;;;;20759367;28;19932;-62
2022/09/12 20:26:39;;;;;;;;;;;;;;;;;;20758391;28;19926;-65
2022/09/12 20:36:41;;;;;;;;;;;;;;;;;;20758338;28;19925;-64
2022/09/12 20:46:43;;;;;;;;;;;;;;;;;;20739897;28;19932;-63
2022/09/12 20:56:45;;;;;;;;;;;;;;;;;;20757230;28;19971;-64
2022/09/12 21:06:47;;;;;;;;;;;;;;;;;;20756691;28;20040;-64
2022/09/12 21:16:49;;;;;;;;;;;;;;;;;;20755239;28;20020;-62
2022/09/12 21:26:51;;;;;;;;;;;;;;;;;;20753545;28;19972;-65
2022/09/12 21:36:53;;;;;;;;;;;;;;;;;;20754363;28;19965;-64
2022/09/12 21:46:55;;;;;;;;;;;;;;;;;;20752538;28;19925;-64
2022/09/12 21:56:57;;;;;;;;;;;;;;;;;;20752288;28;19926;-64
2022/09/12 22:07:00;;;;;;;;;;;;;;;;;;20751097;28;19932;-63
2022/09/12 22:17:02;;;;;;;;;;;;;;;;;;20751584;28;19926;-62
2022/09/12 22:27:05;;;;;;;;;;;;;;;;;;20749643;28;19925;-66
2022/09/12 22:37:12;;;;;;;;;;;;;;;;;;20748474;28;20286;-63
2022/09/12 22:47:14;;;;;;;;;;;;;;;;;;20750076;28;19933;-62
2022/09/12 22:57:16;;;;;;;;;;;;;;;;;;20749221;28;19934;-63
2022/09/12 23:07:17;;;;;;;;;;;;;;;;;;20749279;28;19932;-63
2022/09/12 23:17:20;;;;;;;;;;;;;;;;;;20748702;28;20369;-62
2022/09/12 23:27:22;;;;;;;;;;;;;;;;;;20747518;28;19932;-63
2022/09/12 23:37:23;;;;;;;;;;;;;;;;;;20748716;28;19925;-66
2022/09/12 23:47:25;;;;;;;;;;;;;;;;;;20751611;28;20271;-64
2022/09/12 23:57:28;;;;;;;;;;;;;;;;;;20762006;28;19935;-64
